sensor_id;sensor_type;location;lat;lon;timestamp;pressure;altitude;pressure_sealevel;temperature
53667;BMP280;39568;51.026;5.468;2023-02-07T00:01:21;102982.28;;;0.51
53667;BMP280;39568;51.026;5.468;2023-02-07T00:03:48;102986.81;;;0.51
53667;BMP280;39568;51.026;5.468;2023-02-07T00:06:17;102995.28;;;0.44
53667;BMP280;39568;51.026;5.468;2023-02-07T00:08:45;102990.53;;;0.49
53667;BMP280;39568;51.026;5.468;2023-02-07T00:11:14;102973.28;;;0.48
53667;BMP280;39568;51.026;5.468;2023-02-07T00:13:42;102974.72;;;0.42
53667;BMP280;39568;51.026;5.468;2023-02-07T00:16:08;102980.72;;;0.43
53667;BMP280;39568;51.026;5.468;2023-02-07T00:18:36;102966.13;;;0.45
53667;BMP280;39568;51.026;5.468;2023-02-07T00:21:04;102970.41;;;0.57
53667;BMP280;39568;51.026;5.468;2023-02-07T00:23:32;102977.63;;;0.37
53667;BMP280;39568;51.026;5.468;2023-02-07T00:26:00;102971.78;;;0.21
53667;BMP280;39568;51.026;5.468;2023-02-07T00:28:27;102967.69;;;0.24
53667;BMP280;39568;51.026;5.468;2023-02-07T00:31:02;102964.47;;;0.08
53667;BMP280;39568;51.026;5.468;2023-02-07T00:33:29;102967.28;;;-0.05
53667;BMP280;39568;51.026;5.468;2023-02-07T00:35:57;102964.06;;;-0.17
53667;BMP280;39568;51.026;5.468;2023-02-07T00:38:23;102970.41;;;-0.18
53667;BMP280;39568;51.026;5.468;2023-02-07T00:40:50;102969.59;;;0.00
53667;BMP280;39568;51.026;5.468;2023-02-07T00:43:18;102973.59;;;-0.06
53667;BMP280;39568;51.026;5.468;2023-02-07T00:45:45;102968.66;;;-0.11
53667;BMP280;39568;51.026;5.468;2023-02-07T00:48:12;102960.69;;;-0.18
53667;BMP280;39568;51.026;5.468;2023-02-07T00:50:39;102969.03;;;-0.31
53667;BMP280;39568;51.026;5.468;2023-02-07T00:53:06;102967.47;;;-0.36
53667;BMP280;39568;51.026;5.468;2023-02-07T00:55:33;102960.75;;;-0.33
53667;BMP280;39568;51.026;5.468;2023-02-07T00:57:59;102950.78;;;-0.47
53667;BMP280;39568;51.026;5.468;2023-02-07T01:00:27;102950.00;;;-0.70
53667;BMP280;39568;51.026;5.468;2023-02-07T01:02:54;102964.31;;;-0.83
53667;BMP280;39568;51.026;5.468;2023-02-07T01:05:21;102952.16;;;-0.95
53667;BMP280;39568;51.026;5.468;2023-02-07T01:07:47;102949.59;;;-1.11
53667;BMP280;39568;51.026;5.468;2023-02-07T01:10:14;102945.09;;;-1.29
53667;BMP280;39568;51.026;5.468;2023-02-07T01:12:41;102938.06;;;-1.25
53667;BMP280;39568;51.026;5.468;2023-02-07T01:15:08;102939.97;;;-1.07
53667;BMP280;39568;51.026;5.468;2023-02-07T01:17:36;102954.00;;;-1.15
53667;BMP280;39568;51.026;5.468;2023-02-07T01:20:04;102949.28;;;-1.25
53667;BMP280;39568;51.026;5.468;2023-02-07T01:22:30;102952.19;;;-1.30
53667;BMP280;39568;51.026;5.468;2023-02-07T01:24:58;102953.44;;;-1.40
53667;BMP280;39568;51.026;5.468;2023-02-07T01:27:24;102953.50;;;-1.36
53667;BMP280;39568;51.026;5.468;2023-02-07T01:29:51;102949.78;;;-1.35
53667;BMP280;39568;51.026;5.468;2023-02-07T01:32:18;102958.47;;;-0.96
53667;BMP280;39568;51.026;5.468;2023-02-07T01:34:46;102951.91;;;-1.06
53667;BMP280;39568;51.026;5.468;2023-02-07T01:37:12;102954.81;;;-1.11
53667;BMP280;39568;51.026;5.468;2023-02-07T01:39:39;102951.78;;;-1.13
53667;BMP280;39568;51.026;5.468;2023-02-07T01:42:10;102964.56;;;-1.08
53667;BMP280;39568;51.026;5.468;2023-02-07T01:44:58;102952.47;;;-1.16
53667;BMP280;39568;51.026;5.468;2023-02-07T01:47:26;102967.31;;;-1.20
53667;BMP280;39568;51.026;5.468;2023-02-07T01:49:55;102965.25;;;-1.30
53667;BMP280;39568;51.026;5.468;2023-02-07T01:52:25;102959.91;;;-1.33
53667;BMP280;39568;51.026;5.468;2023-02-07T01:54:54;102959.41;;;-1.39
53667;BMP280;39568;51.026;5.468;2023-02-07T01:57:23;102952.25;;;-1.42
53667;BMP280;39568;51.026;5.468;2023-02-07T01:59:53;102961.59;;;-1.41
53667;BMP280;39568;51.026;5.468;2023-02-07T02:02:22;102962.28;;;-1.44
53667;BMP280;39568;51.026;5.468;2023-02-07T02:04:50;102957.34;;;-1.49
53667;BMP280;39568;51.026;5.468;2023-02-07T02:07:20;102956.56;;;-1.50
53667;BMP280;39568;51.026;5.468;2023-02-07T02:09:48;102959.44;;;-1.55
53667;BMP280;39568;51.026;5.468;2023-02-07T02:12:42;102950.34;;;-1.61
53667;BMP280;39568;51.026;5.468;2023-02-07T02:15:24;102955.84;;;-1.66
53667;BMP280;39568;51.026;5.468;2023-02-07T02:24:10;102937.09;;;-1.52
53667;BMP280;39568;51.026;5.468;2023-02-07T02:26:54;102935.94;;;-1.55
53667;BMP280;39568;51.026;5.468;2023-02-07T02:29:57;102937.78;;;-1.55
53667;BMP280;39568;51.026;5.468;2023-02-07T02:35:45;102929.13;;;-1.59
53667;BMP280;39568;51.026;5.468;2023-02-07T02:38:16;102938.22;;;-1.53
53667;BMP280;39568;51.026;5.468;2023-02-07T02:40:50;102932.72;;;-1.48
53667;BMP280;39568;51.026;5.468;2023-02-07T02:43:24;102929.94;;;-1.55
53667;BMP280;39568;51.026;5.468;2023-02-07T02:45:57;102929.88;;;-1.59
53667;BMP280;39568;51.026;5.468;2023-02-07T02:48:26;102929.94;;;-1.55
53667;BMP280;39568;51.026;5.468;2023-02-07T02:50:54;102944.28;;;-1.49
53667;BMP280;39568;51.026;5.468;2023-02-07T02:53:21;102943.09;;;-1.52
53667;BMP280;39568;51.026;5.468;2023-02-07T02:56:09;102941.56;;;-1.53
53667;BMP280;39568;51.026;5.468;2023-02-07T02:58:48;102938.41;;;-1.62
53667;BMP280;39568;51.026;5.468;2023-02-07T03:01:22;102934.84;;;-1.54
53667;BMP280;39568;51.026;5.468;2023-02-07T03:04:21;102931.31;;;-1.61
53667;BMP280;39568;51.026;5.468;2023-02-07T03:07:01;102933.34;;;-1.70
53667;BMP280;39568;51.026;5.468;2023-02-07T03:09:37;102946.66;;;-1.75
53667;BMP280;39568;51.026;5.468;2023-02-07T03:12:15;102942.88;;;-1.78
53667;BMP280;39568;51.026;5.468;2023-02-07T03:14:50;102954.06;;;-1.77
53667;BMP280;39568;51.026;5.468;2023-02-07T03:17:23;102937.22;;;-1.80
53667;BMP280;39568;51.026;5.468;2023-02-07T03:19:54;102946.31;;;-1.90
53667;BMP280;39568;51.026;5.468;2023-02-07T03:22:26;102944.28;;;-1.96
53667;BMP280;39568;51.026;5.468;2023-02-07T03:24:56;102944.00;;;-1.91
53667;BMP280;39568;51.026;5.468;2023-02-07T03:27:26;102942.72;;;-1.85
53667;BMP280;39568;51.026;5.468;2023-02-07T03:29:55;102946.72;;;-1.72
53667;BMP280;39568;51.026;5.468;2023-02-07T03:32:27;102951.06;;;-1.45
53667;BMP280;39568;51.026;5.468;2023-02-07T03:34:57;102951.34;;;-1.50
53667;BMP280;39568;51.026;5.468;2023-02-07T03:37:32;102947.28;;;-1.47
53667;BMP280;39568;51.026;5.468;2023-02-07T03:40:01;102948.47;;;-1.60
53667;BMP280;39568;51.026;5.468;2023-02-07T03:42:31;102942.16;;;-1.91
53667;BMP280;39568;51.026;5.468;2023-02-07T03:45:00;102948.16;;;-2.06
53667;BMP280;39568;51.026;5.468;2023-02-07T03:47:28;102940.47;;;-2.14
53667;BMP280;39568;51.026;5.468;2023-02-07T03:49:54;102934.66;;;-2.23
53667;BMP280;39568;51.026;5.468;2023-02-07T03:52:21;102928.06;;;-2.33
53667;BMP280;39568;51.026;5.468;2023-02-07T03:54:49;102921.84;;;-2.44
53667;BMP280;39568;51.026;5.468;2023-02-07T03:57:16;102921.81;;;-2.60
53667;BMP280;39568;51.026;5.468;2023-02-07T03:59:43;102927.03;;;-2.72
53667;BMP280;39568;51.026;5.468;2023-02-07T04:02:09;102920.53;;;-2.78
53667;BMP280;39568;51.026;5.468;2023-02-07T04:04:36;102922.41;;;-2.79
53667;BMP280;39568;51.026;5.468;2023-02-07T04:07:03;102930.44;;;-2.84
53667;BMP280;39568;51.026;5.468;2023-02-07T04:09:30;102921.00;;;-2.88
53667;BMP280;39568;51.026;5.468;2023-02-07T04:11:58;102915.03;;;-2.89
53667;BMP280;39568;51.026;5.468;2023-02-07T04:14:25;102906.75;;;-2.79
53667;BMP280;39568;51.026;5.468;2023-02-07T04:16:52;102918.69;;;-2.78
53667;BMP280;39568;51.026;5.468;2023-02-07T04:19:19;102915.00;;;-2.77
53667;BMP280;39568;51.026;5.468;2023-02-07T04:21:45;102911.31;;;-2.75
53667;BMP280;39568;51.026;5.468;2023-02-07T04:24:12;102918.44;;;-2.72
53667;BMP280;39568;51.026;5.468;2023-02-07T04:26:39;102919.63;;;-2.70
53667;BMP280;39568;51.026;5.468;2023-02-07T04:29:07;102907.19;;;-2.77
53667;BMP280;39568;51.026;5.468;2023-02-07T04:31:34;102915.03;;;-2.89
53667;BMP280;39568;51.026;5.468;2023-02-07T04:34:02;102918.94;;;-2.95
53667;BMP280;39568;51.026;5.468;2023-02-07T04:36:28;102925.47;;;-3.01
53667;BMP280;39568;51.026;5.468;2023-02-07T04:38:55;102928.28;;;-3.06
53667;BMP280;39568;51.026;5.468;2023-02-07T04:41:22;102918.53;;;-3.09
53667;BMP280;39568;51.026;5.468;2023-02-07T04:43:49;102920.81;;;-3.07
53667;BMP280;39568;51.026;5.468;2023-02-07T04:46:17;102928.41;;;-3.02
53667;BMP280;39568;51.026;5.468;2023-02-07T04:48:44;102926.13;;;-3.04
53667;BMP280;39568;51.026;5.468;2023-02-07T04:51:12;102924.16;;;-2.95
53667;BMP280;39568;51.026;5.468;2023-02-07T04:53:39;102933.31;;;-2.61
53667;BMP280;39568;51.026;5.468;2023-02-07T04:56:06;102937.81;;;-2.30
53667;BMP280;39568;51.026;5.468;2023-02-07T04:58:33;102926.63;;;-2.31
53667;BMP280;39568;51.026;5.468;2023-02-07T05:01:00;102934.91;;;-2.56
53667;BMP280;39568;51.026;5.468;2023-02-07T05:03:28;102921.72;;;-2.75
53667;BMP280;39568;51.026;5.468;2023-02-07T05:05:54;102927.31;;;-2.89
53667;BMP280;39568;51.026;5.468;2023-02-07T05:08:21;102930.44;;;-2.96
53667;BMP280;39568;51.026;5.468;2023-02-07T05:10:51;102941.00;;;-3.04
53667;BMP280;39568;51.026;5.468;2023-02-07T05:13:18;102938.19;;;-3.11
53667;BMP280;39568;51.026;5.468;2023-02-07T05:15:45;102932.31;;;-3.08
53667;BMP280;39568;51.026;5.468;2023-02-07T05:18:11;102925.47;;;-3.01
53667;BMP280;39568;51.026;5.468;2023-02-07T05:20:39;102938.94;;;-2.99
53667;BMP280;39568;51.026;5.468;2023-02-07T05:23:06;102930.78;;;-2.97
53667;BMP280;39568;51.026;5.468;2023-02-07T05:25:33;102936.56;;;-3.16
53667;BMP280;39568;51.026;5.468;2023-02-07T05:28:00;102937.22;;;-3.31
53667;BMP280;39568;51.026;5.468;2023-02-07T05:30:26;102935.81;;;-3.41
53667;BMP280;39568;51.026;5.468;2023-02-07T05:32:53;102929.19;;;-3.50
53667;BMP280;39568;51.026;5.468;2023-02-07T05:35:29;102937.22;;;-3.55
53667;BMP280;39568;51.026;5.468;2023-02-07T05:37:57;102938.94;;;-3.72
53667;BMP280;39568;51.026;5.468;2023-02-07T05:40:24;102940.13;;;-3.81
53667;BMP280;39568;51.026;5.468;2023-02-07T05:42:50;102948.56;;;-3.84
53667;BMP280;39568;51.026;5.468;2023-02-07T05:45:17;102946.59;;;-3.87
53667;BMP280;39568;51.026;5.468;2023-02-07T05:47:44;102935.13;;;-3.74
53667;BMP280;39568;51.026;5.468;2023-02-07T05:50:11;102939.72;;;-3.71
53667;BMP280;39568;51.026;5.468;2023-02-07T05:52:37;102947.63;;;-3.68
53667;BMP280;39568;51.026;5.468;2023-02-07T05:55:07;102951.53;;;-3.61
53667;BMP280;39568;51.026;5.468;2023-02-07T05:57:34;102950.03;;;-3.50
53667;BMP280;39568;51.026;5.468;2023-02-07T06:00:01;102948.19;;;-3.38
53667;BMP280;39568;51.026;5.468;2023-02-07T06:02:28;102942.44;;;-3.31
53667;BMP280;39568;51.026;5.468;2023-02-07T06:04:55;102947.97;;;-3.45
53667;BMP280;39568;51.026;5.468;2023-02-07T06:07:21;102957.97;;;-3.47
53667;BMP280;39568;51.026;5.468;2023-02-07T06:09:48;102960.44;;;-3.50
53667;BMP280;39568;51.026;5.468;2023-02-07T06:12:16;102961.09;;;-3.53
53667;BMP280;39568;51.026;5.468;2023-02-07T06:14:43;102974.41;;;-3.55
53667;BMP280;39568;51.026;5.468;2023-02-07T06:17:10;102979.72;;;-3.63
53667;BMP280;39568;51.026;5.468;2023-02-07T06:19:36;102969.97;;;-3.67
53667;BMP280;39568;51.026;5.468;2023-02-07T06:22:03;102970.53;;;-3.61
53667;BMP280;39568;51.026;5.468;2023-02-07T06:24:30;102975.06;;;-3.58
53667;BMP280;39568;51.026;5.468;2023-02-07T06:26:56;102980.38;;;-3.67
53667;BMP280;39568;51.026;5.468;2023-02-07T06:29:24;102982.88;;;-3.70
53667;BMP280;39568;51.026;5.468;2023-02-07T06:31:51;102971.69;;;-3.71
53667;BMP280;39568;51.026;5.468;2023-02-07T06:34:18;102970.72;;;-3.66
53667;BMP280;39568;51.026;5.468;2023-02-07T06:36:44;102980.38;;;-3.67
53667;BMP280;39568;51.026;5.468;2023-02-07T06:39:11;102987.41;;;-3.67
53667;BMP280;39568;51.026;5.468;2023-02-07T06:41:38;102990.97;;;-3.72
53667;BMP280;39568;51.026;5.468;2023-02-07T06:44:05;102990.06;;;-3.76
53667;BMP280;39568;51.026;5.468;2023-02-07T06:46:33;102997.78;;;-3.79
53667;BMP280;39568;51.026;5.468;2023-02-07T06:49:00;102994.75;;;-3.81
53667;BMP280;39568;51.026;5.468;2023-02-07T06:51:26;103006.44;;;-3.87
53667;BMP280;39568;51.026;5.468;2023-02-07T06:53:53;102993.38;;;-3.67
53667;BMP280;39568;51.026;5.468;2023-02-07T06:56:20;102999.06;;;-3.28
53667;BMP280;39568;51.026;5.468;2023-02-07T06:58:47;103016.31;;;-3.11
53667;BMP280;39568;51.026;5.468;2023-02-07T07:01:13;103007.97;;;-3.41
53667;BMP280;39568;51.026;5.468;2023-02-07T07:03:45;103017.28;;;-3.40
53667;BMP280;39568;51.026;5.468;2023-02-07T07:06:12;103010.09;;;-3.55
53667;BMP280;39568;51.026;5.468;2023-02-07T07:08:39;103003.03;;;-3.67
53667;BMP280;39568;51.026;5.468;2023-02-07T07:11:06;103010.59;;;-3.74
53667;BMP280;39568;51.026;5.468;2023-02-07T07:13:32;103010.47;;;-3.78
53667;BMP280;39568;51.026;5.468;2023-02-07T07:15:59;103011.44;;;-3.82
53667;BMP280;39568;51.026;5.468;2023-02-07T07:18:26;103019.56;;;-3.84
53667;BMP280;39568;51.026;5.468;2023-02-07T07:20:54;103022.72;;;-3.78
53667;BMP280;39568;51.026;5.468;2023-02-07T07:23:22;103010.66;;;-3.83
53667;BMP280;39568;51.026;5.468;2023-02-07T07:25:49;103014.03;;;-3.82
53667;BMP280;39568;51.026;5.468;2023-02-07T07:28:16;103012.88;;;-3.73
53667;BMP280;39568;51.026;5.468;2023-02-07T07:30:43;103030.91;;;-3.55
53667;BMP280;39568;51.026;5.468;2023-02-07T07:33:10;103033.19;;;-3.54
53667;BMP280;39568;51.026;5.468;2023-02-07T07:35:37;103032.25;;;-3.37
53667;BMP280;39568;51.026;5.468;2023-02-07T07:38:05;103024.88;;;-3.35
53667;BMP280;39568;51.026;5.468;2023-02-07T07:40:31;103045.53;;;-3.18
53667;BMP280;39568;51.026;5.468;2023-02-07T07:42:58;103055.31;;;-2.91
53667;BMP280;39568;51.026;5.468;2023-02-07T07:45:25;103057.78;;;-2.82
53667;BMP280;39568;51.026;5.468;2023-02-07T07:47:52;103044.53;;;-2.77
53667;BMP280;39568;51.026;5.468;2023-02-07T07:50:19;103051.38;;;-2.97
53667;BMP280;39568;51.026;5.468;2023-02-07T07:52:45;103051.59;;;-2.90
53667;BMP280;39568;51.026;5.468;2023-02-07T07:55:13;103054.66;;;-2.88
53667;BMP280;39568;51.026;5.468;2023-02-07T07:57:40;103049.84;;;-2.73
53667;BMP280;39568;51.026;5.468;2023-02-07T08:00:08;103058.72;;;-2.50
53667;BMP280;39568;51.026;5.468;2023-02-07T08:02:35;103051.81;;;-2.31
53667;BMP280;39568;51.026;5.468;2023-02-07T08:05:02;103054.88;;;-2.01
53667;BMP280;39568;51.026;5.468;2023-02-07T08:07:29;103052.75;;;-1.67
53667;BMP280;39568;51.026;5.468;2023-02-07T08:09:56;103058.06;;;-1.32
53667;BMP280;39568;51.026;5.468;2023-02-07T08:12:24;103053.19;;;-0.83
53667;BMP280;39568;51.026;5.468;2023-02-07T08:14:51;103058.75;;;-0.31
53667;BMP280;39568;51.026;5.468;2023-02-07T08:17:17;103065.78;;;0.26
53667;BMP280;39568;51.026;5.468;2023-02-07T08:19:44;103059.69;;;0.71
53667;BMP280;39568;51.026;5.468;2023-02-07T08:22:11;103059.03;;;1.34
53667;BMP280;39568;51.026;5.468;2023-02-07T08:24:39;103050.63;;;1.88
53667;BMP280;39568;51.026;5.468;2023-02-07T08:27:06;103050.44;;;2.65
53667;BMP280;39568;51.026;5.468;2023-02-07T08:29:35;103056.78;;;3.40
53667;BMP280;39568;51.026;5.468;2023-02-07T08:32:01;103053.09;;;4.05
53667;BMP280;39568;51.026;5.468;2023-02-07T08:34:29;103048.78;;;4.85
53667;BMP280;39568;51.026;5.468;2023-02-07T08:37:02;103060.84;;;5.55
53667;BMP280;39568;51.026;5.468;2023-02-07T08:39:29;103058.91;;;6.07
53667;BMP280;39568;51.026;5.468;2023-02-07T08:41:55;103068.88;;;6.63
53667;BMP280;39568;51.026;5.468;2023-02-07T08:44:22;103067.94;;;7.07
53667;BMP280;39568;51.026;5.468;2023-02-07T08:46:50;103071.94;;;7.69
53667;BMP280;39568;51.026;5.468;2023-02-07T08:49:17;103061.84;;;7.83
53667;BMP280;39568;51.026;5.468;2023-02-07T08:51:44;103063.66;;;8.29
53667;BMP280;39568;51.026;5.468;2023-02-07T08:54:11;103071.78;;;8.38
53667;BMP280;39568;51.026;5.468;2023-02-07T08:56:37;103065.22;;;8.98
53667;BMP280;39568;51.026;5.468;2023-02-07T08:59:04;103072.06;;;9.32
53667;BMP280;39568;51.026;5.468;2023-02-07T09:01:31;103057.66;;;9.45
53667;BMP280;39568;51.026;5.468;2023-02-07T09:03:59;103058.69;;;9.35
53667;BMP280;39568;51.026;5.468;2023-02-07T09:06:26;103059.13;;;9.79
53667;BMP280;39568;51.026;5.468;2023-02-07T09:08:53;103055.72;;;9.91
53667;BMP280;39568;51.026;5.468;2023-02-07T09:11:20;103050.16;;;10.01
53667;BMP280;39568;51.026;5.468;2023-02-07T09:13:46;103050.09;;;10.55
53667;BMP280;39568;51.026;5.468;2023-02-07T09:16:13;103055.09;;;11.04
53667;BMP280;39568;51.026;5.468;2023-02-07T09:18:40;103059.88;;;11.09
53667;BMP280;39568;51.026;5.468;2023-02-07T09:21:09;103053.38;;;11.44
53667;BMP280;39568;51.026;5.468;2023-02-07T09:23:36;103067.66;;;11.72
53667;BMP280;39568;51.026;5.468;2023-02-07T09:26:05;103062.19;;;11.75
53667;BMP280;39568;51.026;5.468;2023-02-07T09:28:32;103060.34;;;12.16
53667;BMP280;39568;51.026;5.468;2023-02-07T09:31:06;103067.56;;;12.06
53667;BMP280;39568;51.026;5.468;2023-02-07T09:33:33;103064.03;;;12.49
53667;BMP280;39568;51.026;5.468;2023-02-07T09:35:59;103069.78;;;12.78
53667;BMP280;39568;51.026;5.468;2023-02-07T09:38:28;103072.06;;;12.98
53667;BMP280;39568;51.026;5.468;2023-02-07T09:40:54;103075.88;;;12.79
53667;BMP280;39568;51.026;5.468;2023-02-07T09:43:31;103082.00;;;13.15
53667;BMP280;39568;51.026;5.468;2023-02-07T09:46:01;103074.47;;;13.23
53667;BMP280;39568;51.026;5.468;2023-02-07T09:48:37;103085.50;;;13.94
53667;BMP280;39568;51.026;5.468;2023-02-07T09:51:10;103088.91;;;14.03
53667;BMP280;39568;51.026;5.468;2023-02-07T09:53:45;103082.69;;;14.30
53667;BMP280;39568;51.026;5.468;2023-02-07T09:56:16;103079.13;;;14.57
53667;BMP280;39568;51.026;5.468;2023-02-07T09:58:51;103074.06;;;14.83
53667;BMP280;39568;51.026;5.468;2023-02-07T10:01:21;103077.13;;;14.90
53667;BMP280;39568;51.026;5.468;2023-02-07T10:03:58;103080.06;;;15.16
53667;BMP280;39568;51.026;5.468;2023-02-07T10:06:27;103082.94;;;15.27
53667;BMP280;39568;51.026;5.468;2023-02-07T10:08:58;103080.31;;;15.56
53667;BMP280;39568;51.026;5.468;2023-02-07T10:11:34;103073.91;;;15.68
53667;BMP280;39568;51.026;5.468;2023-02-07T10:14:20;103072.75;;;15.16
53667;BMP280;39568;51.026;5.468;2023-02-07T10:17:00;103072.88;;;15.22
53667;BMP280;39568;51.026;5.468;2023-02-07T10:19:37;103078.31;;;15.13
53667;BMP280;39568;51.026;5.468;2023-02-07T10:22:12;103085.38;;;15.54
53667;BMP280;39568;51.026;5.468;2023-02-07T10:24:55;103078.34;;;14.89
53667;BMP280;39568;51.026;5.468;2023-02-07T10:27:29;103069.81;;;15.58
53667;BMP280;39568;51.026;5.468;2023-02-07T10:30:03;103072.00;;;16.03
53667;BMP280;39568;51.026;5.468;2023-02-07T10:32:34;103066.31;;;16.16
53667;BMP280;39568;51.026;5.468;2023-02-07T10:35:06;103065.66;;;16.21
53667;BMP280;39568;51.026;5.468;2023-02-07T10:37:37;103048.28;;;16.82
53667;BMP280;39568;51.026;5.468;2023-02-07T10:40:12;103051.69;;;16.77
53667;BMP280;39568;51.026;5.468;2023-02-07T10:42:41;103048.75;;;17.63
53667;BMP280;39568;51.026;5.468;2023-02-07T10:45:11;103055.75;;;17.50
53667;BMP280;39568;51.026;5.468;2023-02-07T10:47:39;103057.31;;;17.99
53667;BMP280;39568;51.026;5.468;2023-02-07T10:50:10;103056.88;;;18.17
53667;BMP280;39568;51.026;5.468;2023-02-07T10:52:41;103046.91;;;18.28
53667;BMP280;39568;51.026;5.468;2023-02-07T10:55:12;103044.66;;;18.27
53667;BMP280;39568;51.026;5.468;2023-02-07T10:57:39;103041.84;;;17.26
53667;BMP280;39568;51.026;5.468;2023-02-07T11:00:13;103045.09;;;17.66
53667;BMP280;39568;51.026;5.468;2023-02-07T11:02:47;103048.44;;;17.93
53667;BMP280;39568;51.026;5.468;2023-02-07T11:05:40;103052.66;;;18.80
53667;BMP280;39568;51.026;5.468;2023-02-07T11:08:21;103047.25;;;18.86
53667;BMP280;39568;51.026;5.468;2023-02-07T11:10:51;103043.38;;;19.31
53667;BMP280;39568;51.026;5.468;2023-02-07T11:13:20;103042.59;;;19.25
53667;BMP280;39568;51.026;5.468;2023-02-07T11:15:51;103038.63;;;19.65
53667;BMP280;39568;51.026;5.468;2023-02-07T11:18:30;103038.81;;;19.89
53667;BMP280;39568;51.026;5.468;2023-02-07T11:21:03;103032.47;;;19.81
53667;BMP280;39568;51.026;5.468;2023-02-07T11:23:30;103022.47;;;19.54
53667;BMP280;39568;51.026;5.468;2023-02-07T11:25:58;103030.19;;;19.90
53667;BMP280;39568;51.026;5.468;2023-02-07T11:28:29;103029.31;;;20.23
53667;BMP280;39568;51.026;5.468;2023-02-07T11:30:59;103034.09;;;20.06
53667;BMP280;39568;51.026;5.468;2023-02-07T11:33:29;103027.44;;;20.77
53667;BMP280;39568;51.026;5.468;2023-02-07T11:36:11;103029.38;;;21.12
53667;BMP280;39568;51.026;5.468;2023-02-07T11:38:40;103026.38;;;20.91
53667;BMP280;39568;51.026;5.468;2023-02-07T11:41:17;103020.16;;;20.96
53667;BMP280;39568;51.026;5.468;2023-02-07T11:43:53;103027.34;;;21.18
53667;BMP280;39568;51.026;5.468;2023-02-07T11:46:21;103024.94;;;21.39
53667;BMP280;39568;51.026;5.468;2023-02-07T11:48:52;103028.63;;;21.78
53667;BMP280;39568;51.026;5.468;2023-02-07T11:51:21;103029.97;;;21.90
53667;BMP280;39568;51.026;5.468;2023-02-07T11:53:51;103033.38;;;22.28
53667;BMP280;39568;51.026;5.468;2023-02-07T11:56:22;103028.00;;;22.41
53667;BMP280;39568;51.026;5.468;2023-02-07T11:58:50;103023.69;;;22.64
53667;BMP280;39568;51.026;5.468;2023-02-07T12:01:22;103022.38;;;22.71
53667;BMP280;39568;51.026;5.468;2023-02-07T12:03:53;103022.19;;;23.08
53667;BMP280;39568;51.026;5.468;2023-02-07T12:06:24;103025.19;;;23.44
53667;BMP280;39568;51.026;5.468;2023-02-07T12:08:53;103031.38;;;22.29
53667;BMP280;39568;51.026;5.468;2023-02-07T12:11:26;103026.66;;;21.60
53667;BMP280;39568;51.026;5.468;2023-02-07T12:13:56;103032.97;;;22.06
53667;BMP280;39568;51.026;5.468;2023-02-07T12:16:28;103027.28;;;22.86
53667;BMP280;39568;51.026;5.468;2023-02-07T12:19:00;103029.78;;;23.36
53667;BMP280;39568;51.026;5.468;2023-02-07T12:21:32;103027.19;;;23.30
53667;BMP280;39568;51.026;5.468;2023-02-07T12:24:03;103020.19;;;23.82
53667;BMP280;39568;51.026;5.468;2023-02-07T12:26:36;103026.47;;;24.10
53667;BMP280;39568;51.026;5.468;2023-02-07T12:29:18;103028.13;;;23.79
53667;BMP280;39568;51.026;5.468;2023-02-07T12:31:53;103031.06;;;23.82
53667;BMP280;39568;51.026;5.468;2023-02-07T12:34:26;103024.28;;;24.29
53667;BMP280;39568;51.026;5.468;2023-02-07T12:37:00;103029.38;;;23.92
53667;BMP280;39568;51.026;5.468;2023-02-07T12:39:33;103023.66;;;22.83
53667;BMP280;39568;51.026;5.468;2023-02-07T12:42:23;103016.44;;;23.38
53667;BMP280;39568;51.026;5.468;2023-02-07T12:44:54;103022.06;;;24.07
53667;BMP280;39568;51.026;5.468;2023-02-07T12:47:32;103013.59;;;24.31
53667;BMP280;39568;51.026;5.468;2023-02-07T12:50:30;103014.03;;;24.99
53667;BMP280;39568;51.026;5.468;2023-02-07T12:53:12;103008.19;;;25.31
53667;BMP280;39568;51.026;5.468;2023-02-07T12:55:52;103009.78;;;24.91
53667;BMP280;39568;51.026;5.468;2023-02-07T12:58:37;103008.91;;;25.31
53667;BMP280;39568;51.026;5.468;2023-02-07T13:01:16;103012.56;;;25.34
53667;BMP280;39568;51.026;5.468;2023-02-07T13:04:08;103004.19;;;25.32
53667;BMP280;39568;51.026;5.468;2023-02-07T13:06:49;103006.75;;;25.45
53667;BMP280;39568;51.026;5.468;2023-02-07T13:09:23;102999.91;;;25.59
53667;BMP280;39568;51.026;5.468;2023-02-07T13:11:55;103003.94;;;25.80
53667;BMP280;39568;51.026;5.468;2023-02-07T13:14:35;103012.69;;;25.94
53667;BMP280;39568;51.026;5.468;2023-02-07T13:17:22;103006.88;;;26.05
53667;BMP280;39568;51.026;5.468;2023-02-07T13:19:55;103007.91;;;25.72
53667;BMP280;39568;51.026;5.468;2023-02-07T13:22:29;103011.78;;;24.83
53667;BMP280;39568;51.026;5.468;2023-02-07T13:24:58;103007.19;;;25.64
53667;BMP280;39568;51.026;5.468;2023-02-07T13:27:26;103005.94;;;24.78
53667;BMP280;39568;51.026;5.468;2023-02-07T13:29:55;103005.28;;;23.96
53667;BMP280;39568;51.026;5.468;2023-02-07T13:32:24;102993.31;;;23.44
53667;BMP280;39568;51.026;5.468;2023-02-07T13:34:55;102996.06;;;22.79
53667;BMP280;39568;51.026;5.468;2023-02-07T13:37:31;102998.47;;;23.09
53667;BMP280;39568;51.026;5.468;2023-02-07T13:40:04;103000.13;;;23.38
53667;BMP280;39568;51.026;5.468;2023-02-07T13:42:40;102993.16;;;23.63
53667;BMP280;39568;51.026;5.468;2023-02-07T13:45:15;102997.13;;;23.62
53667;BMP280;39568;51.026;5.468;2023-02-07T13:48:00;102992.03;;;23.92
53667;BMP280;39568;51.026;5.468;2023-02-07T13:50:40;102990.47;;;24.45
53667;BMP280;39568;51.026;5.468;2023-02-07T13:53:21;102987.28;;;25.33
53667;BMP280;39568;51.026;5.468;2023-02-07T13:55:53;102992.94;;;25.35
53667;BMP280;39568;51.026;5.468;2023-02-07T13:58:50;102984.91;;;24.51
53667;BMP280;39568;51.026;5.468;2023-02-07T14:01:45;102988.38;;;24.31
53667;BMP280;39568;51.026;5.468;2023-02-07T14:04:15;102983.94;;;22.93
53667;BMP280;39568;51.026;5.468;2023-02-07T14:06:43;102981.72;;;23.31
53667;BMP280;39568;51.026;5.468;2023-02-07T14:09:15;102975.44;;;24.03
53667;BMP280;39568;51.026;5.468;2023-02-07T14:11:44;102987.25;;;24.26
53667;BMP280;39568;51.026;5.468;2023-02-07T14:14:22;102978.53;;;22.04
53667;BMP280;39568;51.026;5.468;2023-02-07T14:16:52;102972.16;;;21.64
53667;BMP280;39568;51.026;5.468;2023-02-07T14:19:49;102967.38;;;21.51
53667;BMP280;39568;51.026;5.468;2023-02-07T14:22:18;102966.38;;;22.68
53667;BMP280;39568;51.026;5.468;2023-02-07T14:27:31;102959.81;;;23.83